Česky Dansk Deutsch English Español Suomi Français Magyar Italiano Nederlands norsk Polski Português svenska Türkçe

 

Het Weer

Hanty-Mansijsk (Rusland)

01:30, 19 augustus 2016 (GMT)

NWNNE
WE
SWSSE
Home            
Hanty-Mansijsk Surgut Nizhnevartovsk Ekaterinburg Omsk Chelyabinsk-Balandino Perm'/Bolshoe Savino Ust'- Kulom Kostanay Syktyvkar Ufa Novosibirsk Astana Kemerovo Kotlas Barnaul Karaganda Kazan' Enisejsk Orenburg / Tsentralny Novokuznetsk Aktjubinsk Ulyanovsk

Om een weerknop op uw website of weblog te plaatsen, copieer onderstaande code en plak die in uw pagina. In het eerste vakje staat HTML-code, in het tweede vakje UBB-code.


Add to Google

Details

Visibility:Greater than 10000 m, 10 km, 32800 ft, 6.2 miles
Clouds:CAVOC
Temperature:15°C, 59°F
Dew-point:13°C, 55°F
Atmospheric pressure:1026 hPa, 769.6 mmHg, 30.30 inHg, 1.013 atm
Relative humidity:87.8 %
METAR:USHH 190130Z 00000MPS CAVOK 15/13 Q1026 R24/010060 TEMPO 2000 BR BKN005 RMK QFE765

Snelkoppelingen

Actuele weersinformatie van de hele wereld. Voeg locaties toe met het plus (+) symbool. Deze snelkoppelingen kunnen worden toegevoegd aan Google.

Lid van de Technetium groep

website free tracking
StatCounter NetStat W3C Validator

13-11-2019 06:35:20
astro.technetium.be money.technetium.be phote.technetium.be tafeltennistafel.technetium.be www.ligfiets.net